Stations météo

réclame
Mon MeteoGroup
Langdon Bay, Grande-Bretagne (3796): Température de l'air & dewpoint: 15.06.2018 11:00:00 - 21.06.2018 11:00:00 (BST)Langdon Bay, Grande-Bretagne (3796): Vitesse du vent & gusts: 15.06.2018 11:00:00 - 21.06.2018 11:00:00 (BST)Langdon Bay, Grande-Bretagne (3796): Direction du vent: 15.06.2018 11:00:00 - 21.06.2018 11:00:00 (BST)Langdon Bay, Grande-Bretagne (3796): reduced air pressure: 15.06.2018 11:00:00 - 21.06.2018 11:00:00 (BST)
Date & Time tt [°C] td [°C] ff [km/h] ff [knt] fx [km/h] fx [knt] dd ppp [hPa]
21.06.2018 11:00:00 - - - - - - - -
21.06.2018 10:00:00 15,0 6,2 26 14 - - NW 1023,5
21.06.2018 09:00:00 13,9 7,0 24 13 - - NNW 1023,0
21.06.2018 08:00:00 12,9 7,4 18 10 - - NNW 1022,5
21.06.2018 07:00:00 11,6 7,0 26 14 - - NNW 1021,8
21.06.2018 06:00:00 11,1 7,1 22 12 - - NNW 1021,4
21.06.2018 05:00:00 10,7 5,9 28 15 54 29 NNW 1020,6
21.06.2018 04:00:00 12,3 6,9 34 18 48 26 NNW 1020,0
21.06.2018 03:00:00 13,6 10,1 26 14 - - NNW 1019,5
21.06.2018 02:00:00 15,3 13,7 24 13 - - NW 1018,9
21.06.2018 01:00:00 15,6 15,6 13 7 - - WNW 1018,8
21.06.2018 00:00:00 14,3 14,2 11 6 - - WSW 1018,9
20.06.2018 23:00:00 14,1 14,1 13 7 - - WSW 1019,0
20.06.2018 22:00:00 14,1 14,1 16 9 - - WSW 1019,1
20.06.2018 21:00:00 14,0 14,0 15 8 - - SW 1018,8
20.06.2018 20:00:00 13,8 13,8 16 9 - - SW 1019,0
20.06.2018 19:00:00 14,2 14,2 15 8 - - SW 1019,3
20.06.2018 18:00:00 14,4 14,0 22 12 - - SW 1019,8
20.06.2018 17:00:00 15,0 13,9 18 10 - - SW 1020,0
20.06.2018 16:00:00 15,8 14,2 18 10 - - WSW 1020,5
20.06.2018 15:00:00 15,5 14,2 24 13 - - WSW 1020,7
20.06.2018 14:00:00 15,1 14,0 18 10 46 25 SW 1021,0
20.06.2018 13:00:00 15,0 13,9 21 11 - - SW 1021,3
20.06.2018 12:00:00 15,0 14,8 18 10 - - SW 1021,5
20.06.2018 11:00:00 14,1 14,0 22 12 - - SW 1021,9
20.06.2018 10:00:00 13,5 13,5 21 11 - - SW 1021,9
20.06.2018 09:00:00 13,7 13,7 22 12 - - SW 1021,9
20.06.2018 08:00:00 13,9 13,9 16 9 - - SW 1021,9
20.06.2018 07:00:00 13,9 13,9 18 10 - - SW 1021,8
20.06.2018 06:00:00 13,9 13,9 28 15 - - WSW 1021,8
20.06.2018 05:00:00 13,7 13,7 24 13 - - WSW 1021,9
20.06.2018 04:00:00 13,9 13,9 16 9 - - SW 1022,1
20.06.2018 03:00:00 14,1 14,1 15 8 - - SW 1022,2
20.06.2018 02:00:00 14,2 14,2 16 9 - - WSW 1022,6
20.06.2018 01:00:00 14,6 14,5 15 8 - - WSW 1023,0
20.06.2018 00:00:00 14,5 14,5 21 11 - - WSW 1023,1
19.06.2018 23:00:00 14,1 14,1 24 13 - - WSW 1023,4
19.06.2018 22:00:00 14,2 14,2 18 10 - - WSW 1023,5
19.06.2018 21:00:00 13,9 13,9 18 10 - - WSW 1023,2
19.06.2018 20:00:00 14,2 14,0 16 9 - - SW 1023,3
19.06.2018 19:00:00 15,7 14,5 21 11 - - WSW 1023,3
19.06.2018 18:00:00 17,0 14,4 16 9 - - SW 1023,5
19.06.2018 17:00:00 16,8 14,6 21 11 - - WSW 1023,7
19.06.2018 16:00:00 16,6 14,6 21 11 - - WSW 1023,9
19.06.2018 15:00:00 16,8 14,8 13 7 - - SW 1024,1
19.06.2018 14:00:00 16,7 14,6 13 7 - - SW 1024,2
19.06.2018 13:00:00 16,3 14,8 13 7 - - WSW 1024,4
19.06.2018 12:00:00 16,6 15,1 16 9 - - WSW 1024,3
19.06.2018 11:00:00 15,6 14,9 15 8 - - WSW 1024,2
19.06.2018 10:00:00 16,3 15,6 9 5 - - SW 1024,1
19.06.2018 09:00:00 15,4 15,3 11 6 - - WSW 1024,2
19.06.2018 08:00:00 15,3 15,3 15 8 - - WSW 1023,7
19.06.2018 07:00:00 15,1 15,0 15 8 - - WSW 1023,3
19.06.2018 06:00:00 14,8 14,8 16 9 - - WSW 1022,9
19.06.2018 05:00:00 14,7 14,7 21 11 - - WSW 1022,4
19.06.2018 04:00:00 14,8 14,8 15 8 - - WSW 1021,8
19.06.2018 03:00:00 14,9 14,8 18 10 - - WSW 1021,5
19.06.2018 02:00:00 14,9 14,7 15 8 - - WSW 1021,5
19.06.2018 01:00:00 14,9 14,6 18 10 - - WSW 1021,6
19.06.2018 00:00:00 14,7 14,3 22 12 - - WSW 1021,5
18.06.2018 23:00:00 14,7 13,9 21 11 - - WSW 1021,8
18.06.2018 22:00:00 15,5 13,7 18 10 - - W 1021,2
18.06.2018 21:00:00 16,5 13,3 28 15 - - W 1020,5
18.06.2018 20:00:00 15,9 13,6 18 10 - - WSW 1020,3
18.06.2018 19:00:00 15,7 13,4 24 13 - - WSW 1020,0
18.06.2018 18:00:00 15,9 13,0 28 15 50 27 WSW 1019,9
18.06.2018 17:00:00 15,5 12,6 29 16 52 28 WSW 1020,2
18.06.2018 16:00:00 15,4 13,2 29 16 - - WSW 1020,3
18.06.2018 15:00:00 15,9 13,0 24 13 - - SW 1020,3
18.06.2018 14:00:00 15,6 13,5 26 14 46 25 WSW 1020,5
18.06.2018 13:00:00 15,4 14,2 26 14 - - WSW 1020,2
18.06.2018 12:00:00 14,2 13,5 21 11 - - SW 1020,2
18.06.2018 11:00:00 14,3 14,3 18 10 - - WSW 1019,6
18.06.2018 10:00:00 13,6 13,6 18 10 - - SW 1019,5
18.06.2018 09:00:00 13,5 13,5 16 9 - - SW 1019,4
18.06.2018 08:00:00 14,0 14,0 18 10 - - SW 1018,8
18.06.2018 07:00:00 14,1 14,1 24 13 - - WSW 1018,3
18.06.2018 06:00:00 13,9 13,9 21 11 - - WSW 1018,1
18.06.2018 05:00:00 13,7 13,7 18 10 - - WSW 1017,8
18.06.2018 04:00:00 13,6 13,6 18 10 - - WSW 1017,5
18.06.2018 03:00:00 13,8 13,7 24 13 - - WSW 1017,7
18.06.2018 02:00:00 13,9 13,8 21 11 - - WSW 1017,7
18.06.2018 01:00:00 13,8 13,7 22 12 - - WSW 1018,1
18.06.2018 00:00:00 13,5 13,5 21 11 - - WSW 1018,5
17.06.2018 23:00:00 13,5 13,2 18 10 - - SW 1018,4
17.06.2018 22:00:00 13,4 12,6 26 14 - - SW 1018,5
17.06.2018 21:00:00 13,2 11,9 22 12 - - SW 1018,2
17.06.2018 20:00:00 13,5 11,8 24 13 52 28 WSW 1018,2
17.06.2018 19:00:00 13,7 12,3 22 12 - - SW 1018,2
17.06.2018 18:00:00 13,9 12,0 24 13 - - SW 1018,0
17.06.2018 17:00:00 14,7 11,5 24 13 46 25 SW 1018,0
17.06.2018 16:00:00 14,6 12,0 22 12 - - SW 1018,1
17.06.2018 15:00:00 14,7 12,1 24 13 - - SW 1018,0
17.06.2018 14:00:00 16,3 12,7 24 13 - - SW 1017,5
17.06.2018 13:00:00 15,8 13,7 24 13 - - SW 1017,5
17.06.2018 12:00:00 15,8 12,5 22 12 - - SW 1017,4
17.06.2018 11:00:00 16,2 11,3 18 10 - - SW 1017,3
17.06.2018 10:00:00 14,0 11,1 16 9 - - WSW 1017,3
17.06.2018 09:00:00 13,4 10,7 15 8 - - WSW 1017,3
17.06.2018 08:00:00 13,6 9,9 16 9 - - WSW 1017,0
17.06.2018 07:00:00 13,1 9,2 16 9 - - W 1016,3
17.06.2018 06:00:00 12,9 9,8 16 9 - - WSW 1015,9
17.06.2018 05:00:00 12,8 9,8 15 8 - - WSW 1015,7
17.06.2018 04:00:00 13,0 10,2 16 9 - - WSW 1015,8
17.06.2018 03:00:00 13,0 10,4 15 8 - - WSW 1015,8
17.06.2018 02:00:00 12,7 11,1 15 8 - - WSW 1015,5
17.06.2018 01:00:00 12,9 11,3 21 11 - - WSW 1015,4
17.06.2018 00:00:00 13,5 11,4 22 12 - - WSW 1015,2
16.06.2018 23:00:00 13,5 11,6 24 13 - - WSW 1015,1
16.06.2018 22:00:00 13,7 12,6 28 15 50 27 WSW 1015,0
16.06.2018 21:00:00 13,5 12,5 26 14 55 30 WSW 1014,4
16.06.2018 20:00:00 14,0 12,3 29 16 54 29 WSW 1014,6
16.06.2018 19:00:00 14,2 12,4 21 11 - - SW 1014,7
16.06.2018 18:00:00 14,1 12,0 24 13 - - SW 1014,8
16.06.2018 17:00:00 14,6 11,9 22 12 - - SW 1015,0
16.06.2018 16:00:00 14,6 11,6 22 12 - - SW 1015,1
16.06.2018 15:00:00 15,9 12,2 22 12 48 26 SW 1015,0
16.06.2018 14:00:00 15,5 11,9 24 13 48 26 SW 1014,8
16.06.2018 13:00:00 15,9 11,9 24 13 - - SW 1014,9
16.06.2018 12:00:00 15,7 12,9 24 13 - - SW 1015,2
16.06.2018 11:00:00 14,4 12,2 22 12 - - WSW 1015,3
16.06.2018 10:00:00 14,4 12,9 15 8 - - SW 1015,4
16.06.2018 09:00:00 14,2 12,7 11 6 - - SW 1015,3
16.06.2018 08:00:00 14,7 10,9 8 4 - - W 1015,4
16.06.2018 07:00:00 13,2 10,6 11 6 - - W 1015,3
16.06.2018 06:00:00 12,7 10,6 11 6 - - W 1015,0
16.06.2018 05:00:00 12,2 10,5 8 4 - - W 1015,1
16.06.2018 04:00:00 12,7 10,5 16 9 - - NW 1015,0
16.06.2018 03:00:00 12,1 11,2 13 7 - - W 1015,6
16.06.2018 02:00:00 12,4 11,4 11 6 - - W 1015,8
16.06.2018 01:00:00 13,0 12,1 13 7 - - WSW 1015,8
16.06.2018 00:00:00 13,1 12,6 15 8 - - WSW 1015,9
15.06.2018 23:00:00 13,3 12,5 18 10 - - WSW 1016,1
15.06.2018 22:00:00 13,7 12,6 16 9 - - WSW 1016,2
15.06.2018 21:00:00 14,0 12,7 16 9 - - WSW 1015,8
15.06.2018 20:00:00 14,2 12,4 13 7 - - SW 1016,0
15.06.2018 19:00:00 14,3 12,3 16 9 - - SW 1016,1
15.06.2018 18:00:00 14,9 12,5 15 8 - - SW 1016,3
15.06.2018 17:00:00 15,9 12,4 15 8 - - WSW 1016,7
15.06.2018 16:00:00 16,2 12,5 16 9 - - SW 1017,0
15.06.2018 15:00:00 16,2 12,5 16 9 - - SW 1017,1
15.06.2018 14:00:00 17,3 12,7 13 7 - - SSW 1016,8
15.06.2018 13:00:00 17,4 13,3 11 6 - - SSW 1017,3
15.06.2018 12:00:00 16,6 11,1 8 4 - - S 1017,0
15.06.2018 11:00:00 16,9 11,8 8 4 - - S 1016,7

tt = Température de l'air
td = dewpoint
ff = Vitesse du vent
fx = gusts
dd = Direction du vent
ppp = reduced air pressure

stations d'obs. à proximité